sensor_id;sensor_type;location;lat;lon;timestamp;pressure;altitude;pressure_sealevel;temperature;humidity
70103;BME280;57470;50.034;15.256;2023-02-28T00:00:11;100605.19;;;0.52;81.89
70103;BME280;57470;50.034;15.256;2023-02-28T00:02:39;100599.09;;;0.50;81.66
70103;BME280;57470;50.034;15.256;2023-02-28T00:05:05;100606.09;;;0.50;81.98
70103;BME280;57470;50.034;15.256;2023-02-28T00:07:31;100593.03;;;0.45;81.72
70103;BME280;57470;50.034;15.256;2023-02-28T00:09:57;100597.34;;;0.51;81.24
70103;BME280;57470;50.034;15.256;2023-02-28T00:12:22;100599.97;;;0.51;80.97
70103;BME280;57470;50.034;15.256;2023-02-28T00:14:48;100596.41;;;0.56;81.34
70103;BME280;57470;50.034;15.256;2023-02-28T00:17:14;100597.44;;;0.45;81.57
70103;BME280;57470;50.034;15.256;2023-02-28T00:19:39;100596.50;;;0.50;80.77
70103;BME280;57470;50.034;15.256;2023-02-28T00:22:04;100595.72;;;0.37;81.06
70103;BME280;57470;50.034;15.256;2023-02-28T00:24:30;100597.38;;;0.48;80.81
70103;BME280;57470;50.034;15.256;2023-02-28T00:26:56;100603.53;;;0.44;81.04
70103;BME280;57470;50.034;15.256;2023-02-28T00:29:21;100600.84;;;0.50;80.98
70103;BME280;57470;50.034;15.256;2023-02-28T00:31:46;100605.09;;;0.61;80.87
70103;BME280;57470;50.034;15.256;2023-02-28T00:34:12;100606.94;;;0.53;80.90
70103;BME280;57470;50.034;15.256;2023-02-28T00:36:37;100606.19;;;0.37;81.38
70103;BME280;57470;50.034;15.256;2023-02-28T00:39:03;100606.00;;;0.56;81.26
70103;BME280;57470;50.034;15.256;2023-02-28T00:41:29;100610.34;;;0.60;81.71
70103;BME280;57470;50.034;15.256;2023-02-28T00:43:54;100608.56;;;0.63;80.59
70103;BME280;57470;50.034;15.256;2023-02-28T00:46:19;100598.06;;;0.68;80.43
70103;BME280;57470;50.034;15.256;2023-02-28T00:48:45;100598.25;;;0.48;80.83
70103;BME280;57470;50.034;15.256;2023-02-28T00:51:10;100604.44;;;0.41;80.80
70103;BME280;57470;50.034;15.256;2023-02-28T00:53:35;100599.91;;;0.58;80.34
70103;BME280;57470;50.034;15.256;2023-02-28T00:56:02;100599.97;;;0.49;80.73
70103;BME280;57470;50.034;15.256;2023-02-28T00:58:28;100605.28;;;0.43;80.72
70103;BME280;57470;50.034;15.256;2023-02-28T01:00:54;100607.03;;;0.41;80.71
70103;BME280;57470;50.034;15.256;2023-02-28T01:03:20;100606.13;;;0.45;80.77
70103;BME280;57470;50.034;15.256;2023-02-28T01:05:46;100607.06;;;0.38;81.25
70103;BME280;57470;50.034;15.256;2023-02-28T01:08:12;100602.69;;;0.40;81.47
70103;BME280;57470;50.034;15.256;2023-02-28T01:10:38;100604.44;;;0.38;81.43
70103;BME280;57470;50.034;15.256;2023-02-28T01:13:04;100603.47;;;0.48;81.06
70103;BME280;57470;50.034;15.256;2023-02-28T01:15:29;100609.63;;;0.44;81.31
70103;BME280;57470;50.034;15.256;2023-02-28T01:17:57;100601.97;;;0.24;81.24
70103;BME280;57470;50.034;15.256;2023-02-28T01:20:23;100599.34;;;0.23;82.17
70103;BME280;57470;50.034;15.256;2023-02-28T01:22:48;100611.56;;;0.25;81.89
70103;BME280;57470;50.034;15.256;2023-02-28T01:25:13;100608.06;;;0.23;82.23
70103;BME280;57470;50.034;15.256;2023-02-28T01:27:39;100607.38;;;0.02;82.28
70103;BME280;57470;50.034;15.256;2023-02-28T01:30:06;100608.28;;;-0.01;82.82
70103;BME280;57470;50.034;15.256;2023-02-28T01:32:32;100607.50;;;-0.17;83.01
70103;BME280;57470;50.034;15.256;2023-02-28T01:34:57;100604.00;;;-0.16;83.23
70103;BME280;57470;50.034;15.256;2023-02-28T01:37:23;100600.56;;;-0.22;83.28
70103;BME280;57470;50.034;15.256;2023-02-28T01:39:48;100604.94;;;-0.24;83.19
70103;BME280;57470;50.034;15.256;2023-02-28T01:42:13;100603.25;;;-0.34;83.26
70103;BME280;57470;50.034;15.256;2023-02-28T01:44:59;100605.00;;;-0.32;83.25
70103;BME280;57470;50.034;15.256;2023-02-28T01:47:34;100605.06;;;-0.41;83.14
70103;BME280;57470;50.034;15.256;2023-02-28T01:50:04;100605.97;;;-0.50;83.84
70103;BME280;57470;50.034;15.256;2023-02-28T01:52:31;100601.66;;;-0.61;83.52
70103;BME280;57470;50.034;15.256;2023-02-28T01:54:59;100606.06;;;-0.66;83.46
70103;BME280;57470;50.034;15.256;2023-02-28T01:57:30;100601.72;;;-0.69;83.33
70103;BME280;57470;50.034;15.256;2023-02-28T02:00:09;100599.09;;;-0.63;83.65
70103;BME280;57470;50.034;15.256;2023-02-28T02:02:39;100601.75;;;-0.73;83.52
70103;BME280;57470;50.034;15.256;2023-02-28T02:05:12;100597.22;;;-0.44;83.34
70103;BME280;57470;50.034;15.256;2023-02-28T02:07:40;100595.63;;;-0.66;83.28
70103;BME280;57470;50.034;15.256;2023-02-28T02:10:17;100594.81;;;-0.81;83.81
70103;BME280;57470;50.034;15.256;2023-02-28T02:13:08;100595.69;;;-0.88;83.88
70103;BME280;57470;50.034;15.256;2023-02-28T02:18:45;100593.91;;;-0.72;83.73
70103;BME280;57470;50.034;15.256;2023-02-28T02:34:47;100600.97;;;-0.92;84.10
70103;BME280;57470;50.034;15.256;2023-02-28T02:40:25;100599.25;;;-1.01;83.88
70103;BME280;57470;50.034;15.256;2023-02-28T02:43:19;100594.06;;;-1.10;84.51
70103;BME280;57470;50.034;15.256;2023-02-28T02:45:53;100587.13;;;-1.17;84.72
70103;BME280;57470;50.034;15.256;2023-02-28T02:48:25;100588.88;;;-1.25;84.92
70103;BME280;57470;50.034;15.256;2023-02-28T02:50:57;100595.84;;;-1.21;84.83
70103;BME280;57470;50.034;15.256;2023-02-28T02:53:33;100588.91;;;-1.28;84.71
70103;BME280;57470;50.034;15.256;2023-02-28T02:56:02;100591.47;;;-1.22;84.23
70103;BME280;57470;50.034;15.256;2023-02-28T02:58:33;100589.75;;;-1.23;84.22
70103;BME280;57470;50.034;15.256;2023-02-28T03:01:02;100588.03;;;-1.29;84.10
70103;BME280;57470;50.034;15.256;2023-02-28T03:03:31;100586.28;;;-1.28;84.44
70103;BME280;57470;50.034;15.256;2023-02-28T03:06:00;100591.53;;;-1.37;84.75
70103;BME280;57470;50.034;15.256;2023-02-28T03:08:29;100595.84;;;-1.24;84.84
70103;BME280;57470;50.034;15.256;2023-02-28T03:11:00;100601.06;;;-1.24;84.13
70103;BME280;57470;50.034;15.256;2023-02-28T03:26:42;100594.16;;;-1.43;85.05
70103;BME280;57470;50.034;15.256;2023-02-28T03:29:20;100602.88;;;-1.44;85.15
70103;BME280;57470;50.034;15.256;2023-02-28T03:32:10;100598.53;;;-1.53;85.14
70103;BME280;57470;50.034;15.256;2023-02-28T03:35:09;100605.47;;;-1.60;85.37
70103;BME280;57470;50.034;15.256;2023-02-28T03:37:35;100601.97;;;-1.49;85.28
70103;BME280;57470;50.034;15.256;2023-02-28T03:40:10;100595.06;;;-1.61;85.58
70103;BME280;57470;50.034;15.256;2023-02-28T03:42:39;100595.94;;;-1.53;85.35
70103;BME280;57470;50.034;15.256;2023-02-28T03:45:19;100593.28;;;-1.38;84.95
70103;BME280;57470;50.034;15.256;2023-02-28T03:47:53;100598.50;;;-1.52;85.50
70103;BME280;57470;50.034;15.256;2023-02-28T03:50:31;100592.41;;;-1.41;84.83
70103;BME280;57470;50.034;15.256;2023-02-28T03:53:10;100597.66;;;-1.57;85.20
70103;BME280;57470;50.034;15.256;2023-02-28T03:55:47;100599.41;;;-1.56;85.57
70103;BME280;57470;50.034;15.256;2023-02-28T04:01:18;100593.31;;;-1.65;85.31
70103;BME280;57470;50.034;15.256;2023-02-28T04:03:45;100603.75;;;-1.53;85.77
70103;BME280;57470;50.034;15.256;2023-02-28T04:06:31;100601.13;;;-1.50;85.36
70103;BME280;57470;50.034;15.256;2023-02-28T04:08:57;100604.63;;;-1.65;85.36
70103;BME280;57470;50.034;15.256;2023-02-28T04:11:29;100606.38;;;-1.80;86.08
70103;BME280;57470;50.034;15.256;2023-02-28T04:13:55;100596.78;;;-1.69;86.14
70103;BME280;57470;50.034;15.256;2023-02-28T04:16:20;100602.88;;;-1.66;86.13
70103;BME280;57470;50.034;15.256;2023-02-28T04:18:46;100608.13;;;-1.81;86.37
70103;BME280;57470;50.034;15.256;2023-02-28T04:21:12;100608.97;;;-1.83;86.54
70103;BME280;57470;50.034;15.256;2023-02-28T04:23:37;100607.22;;;-1.88;86.44
70103;BME280;57470;50.034;15.256;2023-02-28T04:26:03;100608.97;;;-2.02;86.66
70103;BME280;57470;50.034;15.256;2023-02-28T04:28:29;100609.84;;;-1.84;86.93
70103;BME280;57470;50.034;15.256;2023-02-28T04:30:58;100610.72;;;-1.96;87.35
70103;BME280;57470;50.034;15.256;2023-02-28T04:33:24;100611.59;;;-1.82;86.73
70103;BME280;57470;50.034;15.256;2023-02-28T04:36:04;100606.38;;;-1.74;86.45
70103;BME280;57470;50.034;15.256;2023-02-28T04:38:33;100603.78;;;-1.71;86.05
70103;BME280;57470;50.034;15.256;2023-02-28T04:41:00;100613.34;;;-1.81;86.34
70103;BME280;57470;50.034;15.256;2023-02-28T04:43:26;100612.44;;;-1.77;85.97
70103;BME280;57470;50.034;15.256;2023-02-28T04:45:52;100615.94;;;-2.02;86.84
70103;BME280;57470;50.034;15.256;2023-02-28T04:48:17;100613.28;;;-2.33;87.93
70103;BME280;57470;50.034;15.256;2023-02-28T04:50:43;100624.59;;;-2.23;88.04
70103;BME280;57470;50.034;15.256;2023-02-28T04:53:08;100623.72;;;-2.42;88.62
70103;BME280;57470;50.034;15.256;2023-02-28T04:55:34;100622.88;;;-2.16;88.88
70103;BME280;57470;50.034;15.256;2023-02-28T04:57:59;100618.47;;;-2.45;89.48
70103;BME280;57470;50.034;15.256;2023-02-28T05:00:25;100619.34;;;-2.32;89.16
70103;BME280;57470;50.034;15.256;2023-02-28T05:02:50;100619.41;;;-2.03;88.58
70103;BME280;57470;50.034;15.256;2023-02-28T05:05:15;100631.53;;;-2.22;88.91
70103;BME280;57470;50.034;15.256;2023-02-28T05:07:43;100628.00;;;-2.47;88.93
70103;BME280;57470;50.034;15.256;2023-02-28T05:10:09;100640.22;;;-2.26;88.48
70103;BME280;57470;50.034;15.256;2023-02-28T05:12:35;100635.00;;;-2.29;88.44
70103;BME280;57470;50.034;15.256;2023-02-28T05:15:00;100633.25;;;-2.38;88.70
70103;BME280;57470;50.034;15.256;2023-02-28T05:17:27;100636.69;;;-2.54;89.36
70103;BME280;57470;50.034;15.256;2023-02-28T05:19:52;100640.22;;;-2.26;88.76
70103;BME280;57470;50.034;15.256;2023-02-28T05:22:18;100645.41;;;-2.32;88.45
70103;BME280;57470;50.034;15.256;2023-02-28T05:24:43;100644.56;;;-2.30;88.37
70103;BME280;57470;50.034;15.256;2023-02-28T05:27:09;100646.28;;;-2.29;87.87
70103;BME280;57470;50.034;15.256;2023-02-28T05:29:34;100655.00;;;-2.14;88.09
70103;BME280;57470;50.034;15.256;2023-02-28T05:32:08;100646.31;;;-2.24;87.74
70103;BME280;57470;50.034;15.256;2023-02-28T05:34:33;100652.38;;;-2.22;87.29
70103;BME280;57470;50.034;15.256;2023-02-28T05:36:59;100652.34;;;-2.39;87.82
70103;BME280;57470;50.034;15.256;2023-02-28T05:39:24;100661.06;;;-2.28;87.35
70103;BME280;57470;50.034;15.256;2023-02-28T05:41:50;100655.84;;;-2.32;87.10
70103;BME280;57470;50.034;15.256;2023-02-28T05:44:15;100666.22;;;-2.41;87.91
70103;BME280;57470;50.034;15.256;2023-02-28T05:46:41;100668.88;;;-2.28;87.52
70103;BME280;57470;50.034;15.256;2023-02-28T05:49:06;100668.78;;;-2.61;88.35
70103;BME280;57470;50.034;15.256;2023-02-28T05:51:31;100671.44;;;-2.44;88.69
70103;BME280;57470;50.034;15.256;2023-02-28T05:54:00;100670.44;;;-2.81;89.80
70103;BME280;57470;50.034;15.256;2023-02-28T05:56:26;100675.56;;;-2.92;91.08
70103;BME280;57470;50.034;15.256;2023-02-28T05:58:51;100677.44;;;-2.63;90.67
70103;BME280;57470;50.034;15.256;2023-02-28T06:03:49;100689.69;;;-2.37;88.92
70103;BME280;57470;50.034;15.256;2023-02-28T06:06:15;100685.38;;;-2.22;87.95
70103;BME280;57470;50.034;15.256;2023-02-28T06:08:40;100693.22;;;-2.25;87.42
70103;BME280;57470;50.034;15.256;2023-02-28T06:11:08;100690.63;;;-2.19;86.88
70103;BME280;57470;50.034;15.256;2023-02-28T06:13:34;100688.00;;;-2.25;86.96
70103;BME280;57470;50.034;15.256;2023-02-28T06:16:02;100684.53;;;-2.12;86.53
70103;BME280;57470;50.034;15.256;2023-02-28T06:18:28;100700.22;;;-2.06;86.55
70103;BME280;57470;50.034;15.256;2023-02-28T06:20:54;100692.38;;;-2.11;85.92
70103;BME280;57470;50.034;15.256;2023-02-28T06:23:20;100694.91;;;-2.31;86.81
70103;BME280;57470;50.034;15.256;2023-02-28T06:25:46;100698.53;;;-1.43;86.16
70103;BME280;57470;50.034;15.256;2023-02-28T06:28:11;100705.03;;;-0.06;81.41
70103;BME280;57470;50.034;15.256;2023-02-28T06:30:37;100692.19;;;2.22;75.19
70103;BME280;57470;50.034;15.256;2023-02-28T06:33:03;100688.25;;;3.86;68.87
70103;BME280;57470;50.034;15.256;2023-02-28T06:35:28;100683.94;;;4.58;65.79
70103;BME280;57470;50.034;15.256;2023-02-28T06:37:54;100684.75;;;4.61;64.38
70103;BME280;57470;50.034;15.256;2023-02-28T06:40:20;100682.53;;;6.59;59.78
70103;BME280;57470;50.034;15.256;2023-02-28T06:42:45;100692.44;;;6.79;58.81
70103;BME280;57470;50.034;15.256;2023-02-28T06:45:11;100689.81;;;6.25;60.70
70103;BME280;57470;50.034;15.256;2023-02-28T06:47:39;100693.53;;;6.46;60.84
70103;BME280;57470;50.034;15.256;2023-02-28T06:50:05;100693.91;;;7.85;58.13
70103;BME280;57470;50.034;15.256;2023-02-28T06:52:31;100686.25;;;7.78;55.95
70103;BME280;57470;50.034;15.256;2023-02-28T06:54:56;100696.28;;;8.15;55.94
70103;BME280;57470;50.034;15.256;2023-02-28T06:57:31;100701.91;;;7.84;55.57
70103;BME280;57470;50.034;15.256;2023-02-28T06:59:58;100696.22;;;7.95;56.56
70103;BME280;57470;50.034;15.256;2023-02-28T07:02:24;100700.34;;;8.23;54.19
70103;BME280;57470;50.034;15.256;2023-02-28T07:04:49;100702.25;;;7.98;55.05
70103;BME280;57470;50.034;15.256;2023-02-28T07:07:15;100689.00;;;8.65;55.87
70103;BME280;57470;50.034;15.256;2023-02-28T07:09:40;100688.38;;;9.00;52.58
70103;BME280;57470;50.034;15.256;2023-02-28T07:12:06;100693.72;;;10.72;47.63
70103;BME280;57470;50.034;15.256;2023-02-28T07:14:31;100692.81;;;11.25;46.94
70103;BME280;57470;50.034;15.256;2023-02-28T07:16:56;100695.28;;;7.49;53.83
70103;BME280;57470;50.034;15.256;2023-02-28T07:19:22;100694.84;;;9.74;52.77
70103;BME280;57470;50.034;15.256;2023-02-28T07:21:47;100693.97;;;7.11;54.34
70103;BME280;57470;50.034;15.256;2023-02-28T07:24:13;100702.03;;;7.33;54.33
70103;BME280;57470;50.034;15.256;2023-02-28T07:26:40;100704.63;;;5.72;57.78
70103;BME280;57470;50.034;15.256;2023-02-28T07:29:06;100709.66;;;7.65;55.89
70103;BME280;57470;50.034;15.256;2023-02-28T07:31:31;100714.34;;;3.11;63.33
70103;BME280;57470;50.034;15.256;2023-02-28T07:33:57;100714.50;;;4.29;64.20
70103;BME280;57470;50.034;15.256;2023-02-28T07:36:22;100716.25;;;3.47;65.18
70103;BME280;57470;50.034;15.256;2023-02-28T07:38:48;100720.38;;;1.39;68.62
70103;BME280;57470;50.034;15.256;2023-02-28T07:41:19;100731.84;;;2.00;70.76
70103;BME280;57470;50.034;15.256;2023-02-28T07:43:45;100721.38;;;1.98;69.19
70103;BME280;57470;50.034;15.256;2023-02-28T07:46:13;100718.34;;;1.61;70.27
70103;BME280;57470;50.034;15.256;2023-02-28T07:48:40;100731.59;;;2.19;70.38
70103;BME280;57470;50.034;15.256;2023-02-28T07:51:05;100730.75;;;2.17;70.66
70103;BME280;57470;50.034;15.256;2023-02-28T07:53:31;100730.94;;;1.33;71.79
70103;BME280;57470;50.034;15.256;2023-02-28T07:56:00;100742.44;;;1.95;70.60
70103;BME280;57470;50.034;15.256;2023-02-28T07:58:27;100730.38;;;1.01;71.52
70103;BME280;57470;50.034;15.256;2023-02-28T08:00:53;100744.91;;;1.34;72.44
70103;BME280;57470;50.034;15.256;2023-02-28T08:03:20;100739.63;;;1.38;71.63
70103;BME280;57470;50.034;15.256;2023-02-28T08:05:46;100734.72;;;1.05;71.64
70103;BME280;57470;50.034;15.256;2023-02-28T08:08:13;100745.19;;;1.83;72.37
70103;BME280;57470;50.034;15.256;2023-02-28T08:10:38;100730.22;;;1.93;70.23
70103;BME280;57470;50.034;15.256;2023-02-28T08:13:04;100736.31;;;1.93;70.25
70103;BME280;57470;50.034;15.256;2023-02-28T08:15:29;100733.16;;;1.67;69.57
70103;BME280;57470;50.034;15.256;2023-02-28T08:17:55;100736.47;;;1.82;70.17
70103;BME280;57470;50.034;15.256;2023-02-28T08:20:22;100735.34;;;1.30;70.71
70103;BME280;57470;50.034;15.256;2023-02-28T08:22:48;100735.94;;;1.55;70.54
70103;BME280;57470;50.034;15.256;2023-02-28T08:25:14;100741.16;;;1.56;69.51
70103;BME280;57470;50.034;15.256;2023-02-28T08:27:39;100738.94;;;1.96;69.67
70103;BME280;57470;50.034;15.256;2023-02-28T08:30:06;100737.72;;;2.18;68.56
70103;BME280;57470;50.034;15.256;2023-02-28T08:32:33;100741.13;;;1.61;69.21
70103;BME280;57470;50.034;15.256;2023-02-28T08:34:59;100731.97;;;1.91;68.30
70103;BME280;57470;50.034;15.256;2023-02-28T08:37:25;100742.84;;;1.62;68.77
70103;BME280;57470;50.034;15.256;2023-02-28T08:39:51;100734.38;;;1.37;68.05
70103;BME280;57470;50.034;15.256;2023-02-28T08:42:16;100737.69;;;1.52;67.38
70103;BME280;57470;50.034;15.256;2023-02-28T08:44:41;100744.28;;;1.87;67.16
70103;BME280;57470;50.034;15.256;2023-02-28T08:47:07;100742.41;;;1.97;68.02
70103;BME280;57470;50.034;15.256;2023-02-28T08:49:32;100741.34;;;1.39;67.10
70103;BME280;57470;50.034;15.256;2023-02-28T08:51:58;100738.28;;;1.79;66.96
70103;BME280;57470;50.034;15.256;2023-02-28T08:54:24;100733.59;;;2.01;67.63
70103;BME280;57470;50.034;15.256;2023-02-28T08:56:49;100735.47;;;1.91;66.83
70103;BME280;57470;50.034;15.256;2023-02-28T08:59:15;100743.22;;;2.00;67.27
70103;BME280;57470;50.034;15.256;2023-02-28T09:01:41;100735.44;;;1.96;67.27
70103;BME280;57470;50.034;15.256;2023-02-28T09:04:07;100739.47;;;2.19;65.85
70103;BME280;57470;50.034;15.256;2023-02-28T09:06:34;100737.06;;;2.03;64.28
70103;BME280;57470;50.034;15.256;2023-02-28T09:09:00;100730.69;;;2.20;66.40
70103;BME280;57470;50.034;15.256;2023-02-28T09:11:27;100736.81;;;2.21;65.28
70103;BME280;57470;50.034;15.256;2023-02-28T09:13:53;100734.03;;;2.32;64.67
70103;BME280;57470;50.034;15.256;2023-02-28T09:16:21;100719.91;;;2.40;64.77
70103;BME280;57470;50.034;15.256;2023-02-28T09:18:47;100728.09;;;2.76;65.12
70103;BME280;57470;50.034;15.256;2023-02-28T09:21:17;100725.25;;;2.88;63.17
70103;BME280;57470;50.034;15.256;2023-02-28T09:23:44;100718.06;;;2.45;63.29
70103;BME280;57470;50.034;15.256;2023-02-28T09:26:22;100724.81;;;3.12;63.99
70103;BME280;57470;50.034;15.256;2023-02-28T09:28:47;100722.44;;;2.46;63.52
70103;BME280;57470;50.034;15.256;2023-02-28T09:31:15;100721.78;;;2.32;64.04
70103;BME280;57470;50.034;15.256;2023-02-28T09:33:40;100715.59;;;2.35;63.70
70103;BME280;57470;50.034;15.256;2023-02-28T09:36:06;100720.56;;;2.53;62.94
70103;BME280;57470;50.034;15.256;2023-02-28T09:38:32;100717.75;;;2.65;62.79
70103;BME280;57470;50.034;15.256;2023-02-28T09:41:08;100722.22;;;3.11;63.39
70103;BME280;57470;50.034;15.256;2023-02-28T09:43:38;100714.88;;;2.79;61.99
70103;BME280;57470;50.034;15.256;2023-02-28T09:46:42;100718.00;;;3.02;61.82
70103;BME280;57470;50.034;15.256;2023-02-28T09:49:14;100715.78;;;3.27;62.58
70103;BME280;57470;50.034;15.256;2023-02-28T09:51:46;100726.63;;;3.09;62.26
70103;BME280;57470;50.034;15.256;2023-02-28T09:54:22;100722.13;;;3.14;61.35
70103;BME280;57470;50.034;15.256;2023-02-28T09:56:55;100731.69;;;3.21;60.92
70103;BME280;57470;50.034;15.256;2023-02-28T09:59:31;100726.66;;;3.53;61.96
70103;BME280;57470;50.034;15.256;2023-02-28T10:05:12;100723.84;;;3.18;61.75
70103;BME280;57470;50.034;15.256;2023-02-28T10:10:49;100725.25;;;2.86;60.55
70103;BME280;57470;50.034;15.256;2023-02-28T10:13:34;100721.63;;;3.41;60.54
70103;BME280;57470;50.034;15.256;2023-02-28T10:16:08;100729.09;;;3.62;60.96
70103;BME280;57470;50.034;15.256;2023-02-28T10:21:17;100730.16;;;3.54;60.77
70103;BME280;57470;50.034;15.256;2023-02-28T10:23:45;100727.63;;;3.92;61.61
70103;BME280;57470;50.034;15.256;2023-02-28T10:26:14;100726.66;;;3.53;59.85
70103;BME280;57470;50.034;15.256;2023-02-28T10:28:41;100726.09;;;4.21;60.74
70103;BME280;57470;50.034;15.256;2023-02-28T10:31:20;100731.25;;;4.25;61.37
70103;BME280;57470;50.034;15.256;2023-02-28T10:33:46;100721.13;;;4.45;61.19
70103;BME280;57470;50.034;15.256;2023-02-28T10:36:16;100720.59;;;4.30;60.09
70103;BME280;57470;50.034;15.256;2023-02-28T10:38:42;100707.16;;;4.42;59.38
70103;BME280;57470;50.034;15.256;2023-02-28T10:41:09;100716.94;;;4.38;60.67
70103;BME280;57470;50.034;15.256;2023-02-28T10:43:37;100714.16;;;4.43;62.06
70103;BME280;57470;50.034;15.256;2023-02-28T10:49:05;100708.03;;;4.78;61.44
70103;BME280;57470;50.034;15.256;2023-02-28T10:51:39;100704.75;;;4.33;59.33
70103;BME280;57470;50.034;15.256;2023-02-28T10:54:05;100707.56;;;4.25;59.32
70103;BME280;57470;50.034;15.256;2023-02-28T10:56:31;100695.75;;;4.77;58.10
70103;BME280;57470;50.034;15.256;2023-02-28T11:03:57;100700.41;;;4.30;58.47
70103;BME280;57470;50.034;15.256;2023-02-28T11:06:31;100699.72;;;4.59;60.98
70103;BME280;57470;50.034;15.256;2023-02-28T11:09:21;100698.34;;;4.06;61.26
70103;BME280;57470;50.034;15.256;2023-02-28T11:11:48;100696.06;;;3.91;60.09
70103;BME280;57470;50.034;15.256;2023-02-28T11:16:45;100695.38;;;4.57;60.13
70103;BME280;57470;50.034;15.256;2023-02-28T11:19:19;100689.16;;;4.95;58.77
70103;BME280;57470;50.034;15.256;2023-02-28T11:21:53;100689.28;;;5.22;59.12
70103;BME280;57470;50.034;15.256;2023-02-28T11:24:33;100686.88;;;5.13;58.97
70103;BME280;57470;50.034;15.256;2023-02-28T11:27:00;100685.31;;;5.06;59.38
70103;BME280;57470;50.034;15.256;2023-02-28T11:29:31;100679.94;;;4.77;59.12
70103;BME280;57470;50.034;15.256;2023-02-28T11:32:20;100680.47;;;5.23;58.21
70103;BME280;57470;50.034;15.256;2023-02-28T11:34:48;100670.59;;;4.65;58.68
70103;BME280;57470;50.034;15.256;2023-02-28T11:37:27;100679.03;;;5.43;57.31
70103;BME280;57470;50.034;15.256;2023-02-28T11:39:53;100667.66;;;4.42;57.91
70103;BME280;57470;50.034;15.256;2023-02-28T11:56:07;100654.22;;;4.86;56.67
70103;BME280;57470;50.034;15.256;2023-02-28T11:59:04;100655.72;;;5.89;55.74
70103;BME280;57470;50.034;15.256;2023-02-28T12:04:42;100657.56;;;5.55;57.20
70103;BME280;57470;50.034;15.256;2023-02-28T12:07:29;100659.94;;;5.64;57.84
70103;BME280;57470;50.034;15.256;2023-02-28T12:12:39;100651.06;;;5.97;56.46
70103;BME280;57470;50.034;15.256;2023-02-28T12:20:30;100642.00;;;5.16;56.39
70103;BME280;57470;50.034;15.256;2023-02-28T12:28:12;100645.66;;;6.00;55.71
70103;BME280;57470;50.034;15.256;2023-02-28T12:31:08;100639.81;;;6.19;55.60
70103;BME280;57470;50.034;15.256;2023-02-28T12:33:40;100637.31;;;5.85;55.37
70103;BME280;57470;50.034;15.256;2023-02-28T12:36:11;100636.97;;;6.25;54.88
70103;BME280;57470;50.034;15.256;2023-02-28T12:38:55;100635.72;;;5.81;55.41
70103;BME280;57470;50.034;15.256;2023-02-28T12:41:42;100629.72;;;5.74;56.10
70103;BME280;57470;50.034;15.256;2023-02-28T12:44:26;100639.69;;;5.64;57.12
70103;BME280;57470;50.034;15.256;2023-02-28T12:47:01;100634.22;;;5.72;55.33
70103;BME280;57470;50.034;15.256;2023-02-28T12:49:42;100634.72;;;5.83;54.59
70103;BME280;57470;50.034;15.256;2023-02-28T12:52:11;100631.88;;;5.91;57.39
70103;BME280;57470;50.034;15.256;2023-02-28T12:54:51;100623.66;;;5.43;56.14
70103;BME280;57470;50.034;15.256;2023-02-28T12:57:53;100633.19;;;5.47;56.69
70103;BME280;57470;50.034;15.256;2023-02-28T13:00:25;100628.16;;;5.98;56.04
70103;BME280;57470;50.034;15.256;2023-02-28T13:06:50;100618.44;;;5.40;56.79
70103;BME280;57470;50.034;15.256;2023-02-28T13:09:19;100620.78;;;5.80;56.97
70103;BME280;57470;50.034;15.256;2023-02-28T13:11:47;100621.72;;;4.86;57.26
70103;BME280;57470;50.034;15.256;2023-02-28T13:14:29;100617.03;;;5.57;57.45
70103;BME280;57470;50.034;15.256;2023-02-28T13:19:57;100612.88;;;4.88;58.68
70103;BME280;57470;50.034;15.256;2023-02-28T13:22:42;100611.75;;;5.87;56.56
70103;BME280;57470;50.034;15.256;2023-02-28T13:27:46;100607.94;;;5.09;55.66
70103;BME280;57470;50.034;15.256;2023-02-28T13:33:30;100608.97;;;5.02;55.92
70103;BME280;57470;50.034;15.256;2023-02-28T13:38:47;100599.47;;;5.56;57.18
70103;BME280;57470;50.034;15.256;2023-02-28T13:46:30;100599.34;;;5.32;57.63
70103;BME280;57470;50.034;15.256;2023-02-28T13:48:56;100588.38;;;6.02;57.46
70103;BME280;57470;50.034;15.256;2023-02-28T13:51:47;100591.91;;;5.15;57.67
70103;BME280;57470;50.034;15.256;2023-02-28T13:54:29;100594.66;;;5.71;58.68
70103;BME280;57470;50.034;15.256;2023-02-28T14:03:07;100588.19;;;6.09;56.17
70103;BME280;57470;50.034;15.256;2023-02-28T14:05:35;100586.53;;;5.77;57.39
70103;BME280;57470;50.034;15.256;2023-02-28T14:08:08;100593.44;;;5.53;57.33
70103;BME280;57470;50.034;15.256;2023-02-28T14:10:47;100587.44;;;6.05;57.04
70103;BME280;57470;50.034;15.256;2023-02-28T14:16:10;100595.59;;;5.39;57.50
70103;BME280;57470;50.034;15.256;2023-02-28T14:18:42;100588.34;;;5.17;59.29
70103;BME280;57470;50.034;15.256;2023-02-28T14:21:29;100592.22;;;5.35;58.44
70103;BME280;57470;50.034;15.256;2023-02-28T14:27:08;100589.06;;;5.81;56.89
70103;BME280;57470;50.034;15.256;2023-02-28T14:35:28;100575.13;;;5.76;57.60
70103;BME280;57470;50.034;15.256;2023-02-28T14:37:46;100574.63;;;5.05;58.62
70103;BME280;57470;50.034;15.256;2023-02-28T14:40:22;100577.63;;;5.22;58.02
70103;BME280;57470;50.034;15.256;2023-02-28T14:43:00;100570.88;;;5.43;58.69
70103;BME280;57470;50.034;15.256;2023-02-28T14:45:29;100564.00;;;5.08;58.47
70103;BME280;57470;50.034;15.256;2023-02-28T14:47:56;100559.06;;;4.65;59.10
70103;BME280;57470;50.034;15.256;2023-02-28T14:50:34;100566.19;;;5.23;59.80
70103;BME280;57470;50.034;15.256;2023-02-28T14:52:59;100563.63;;;4.90;59.95
70103;BME280;57470;50.034;15.256;2023-02-28T14:55:30;100558.75;;;5.06;60.62
70103;BME280;57470;50.034;15.256;2023-02-28T14:58:22;100566.78;;;4.71;59.50
70103;BME280;57470;50.034;15.256;2023-02-28T15:00:48;100567.44;;;4.79;59.51
70103;BME280;57470;50.034;15.256;2023-02-28T15:03:24;100575.88;;;5.22;58.89